Station: Jabiru

  Atmospheric Gas Attenuation - ITU Rec 676-11   --------------- db/100km ---------------
Date Time Temp RH % AH g/m3 Dew Point Wind Direction Speed kph Gust kph Barometer mB Rainfall Since 9am 24GHz 47GHz 76GHz 122GHz 134GHz 241GHz
11 22:10 27.9 79 21.37 23.9 9 9 1010.8 0 45.7 43.0 85.2 225.6 252.0 875.8
11 22:00 27.9 81 21.91 24.3 2 6 1010.7 0 46.8 44.1 87.8 232.5 260.5 905.3
11 21:50 28.4 80 22.24 24.6 4 6 1010.5 0 47.5 44.4 88.8 235.2 263.9 917.3
11 21:40 28 82 22.3 24.6 0 0 1010.3 0 47.6 44.8 89.6 237.2 266.3 925.4
11 21:30 28 78 21.21 23.8 6 7 1010.3 0 45.3 42.6 84.3 223.2 249.1 865.6
11 21:20 28.5 79 22.08 24.5 7 9 1010.4 0 47.1 44.1 87.9 232.8 261.0 907.2
11 21:10 28.2 80 22 24.4 0 0 1010.2 0 47.0 44.1 87.9 232.7 260.8 906.3
11 21:00 28.2 80 22 24.4 7 19 1010.1 0 47.0 44.1 87.9 232.7 260.8 906.3
11 20:50 28.7 75 21.2 23.8 6 7 1009.9 0 45.2 42.2 83.5 220.9 246.5 856.9
11 20:40 28.9 73 20.86 23.6 2 7 1009.7 0 44.5 41.5 81.6 216.1 240.6 836.4
11 20:30 29.1 70 20.22 23.1 0 0 1009.6 0 43.1 40.2 78.4 207.6 230.3 800.5
11 20:20 29.1 73 21.09 23.8 0 0 1009.5 0 45.0 41.8 82.5 218.3 243.5 846.3
11 20:10 29.5 69 20.37 23.2 6 7 1009.4 0 43.4 40.3 78.7 208.3 231.3 804.0
11 20:00 30 67 20.32 23.4 6 7 1009.3 0 43.2 39.9 77.9 206.4 229.0 796.1
11 19:50 29.5 69 20.37 23.2 4 6 1009.1 0 43.4 40.3 78.7 208.3 231.2 803.9
11 19:40 29.3 73 21.32 24 0 0 1009 0 45.4 42.1 83.3 220.6 246.2 856.0
11 19:30 29.6 69 20.48 23.5 2 7 1008.8 0 43.6 40.4 79.1 209.3 232.5 808.3
11 19:20 29.9 70 21.12 23.8 6 6 1008.6 0 44.9 41.4 81.7 216.3 241.2 838.5
11 19:10 30.3 68 20.96 23.7 9 9 1008.4 0 44.6 40.9 80.5 213.2 237.5 825.6
11 19:00 30.4 67 20.77 23.6 7 11 1008.2 0 44.1 40.5 79.5 210.5 234.3 814.5
11 18:50 30.6 67 20.99 23.8 7 9 1008.2 0 44.6 40.8 80.3 212.7 236.9 823.8
11 18:40 30.9 64 20.38 23.5 6 7 1008.1 0 43.3 39.6 77.2 204.5 227.0 789.2
11 18:30 31.1 64 20.6 23.7 6 9 1007.8 0 43.7 39.9 78.0 206.5 229.5 798.2
11 18:20 31.7 60 19.94 23.2 6 7 1007.7 0 42.3 38.4 74.5 197.1 218.2 758.8
11 18:10 32.2 59 20.14 23.4 7 9 1007.7 0 42.6 38.5 74.9 198.2 219.6 763.8
11 18:00 32.3 57 19.56 22.7 7 13 1007.6 0 41.4 37.5 72.2 191.2 211.1 734.2
11 17:50 32.6 56 19.52 22.7 11 13 1007.5 0 41.3 37.3 71.8 190.0 209.7 729.3
11 17:40 34 54 20.27 23.4 6 7 1007.6 0 42.7 37.9 73.7 195.1 216.3 752.4
11 17:30 34.1 50 18.87 22.5 7 7 1007.5 0 39.8 35.5 67.7 179.2 196.8 684.6
11 17:20 34.2 50 18.97 22.3 7 7 1007.3 0 40.0 35.6 68.0 180.0 197.9 688.3
11 17:10 34.2 48 18.21 21.9 7 7 1007.3 0 38.4 34.4 64.9 171.8 187.7 652.9
11 17:00 34.5 48 18.5 21.9 6 9 1007.2 0 39.0 34.7 65.8 174.2 190.8 663.8
11 16:50 34.6 46 17.82 21.3 7 9 1007 0 37.6 33.6 63.0 166.7 181.6 631.7
11 16:40 34.9 45 17.71 21.5 11 13 1007 0 37.3 33.3 62.3 164.9 179.5 624.3
11 16:30 35 45 17.8 21.3 11 17 1007 0 37.5 33.4 62.6 165.6 180.4 627.6
11 16:20 35.5 44 17.86 21.4 7 11 1006.9 0 37.6 33.3 62.4 165.2 180.0 626.3
11 16:10 36.3 41 17.35 21.3 7 11 1006.9 0 36.5 32.2 59.8 158.3 171.7 597.5
11 16:00 36.1 41 17.17 20.8 6 13 1006.8 0 36.1 32.0 59.3 156.8 169.9 591.0
11 15:50 35.6 44 17.95 21.8 11 11 1006.9 0 37.8 33.4 62.7 165.9 180.9 629.5
11 15:40 36 43 17.91 21.8 11 15 1006.9 0 37.6 33.2 62.2 164.7 179.5 624.5
11 15:30 35.9 41 16.99 20.6 7 15 1007 0 35.8 31.8 58.8 155.4 168.1 584.7
11 15:20 35.9 40 16.58 20.2 0 0 1007.1 0 34.9 31.2 57.2 151.3 163.0 566.9
11 15:10 35.5 41 16.64 20.6 2 4 1007.2 0 35.1 31.4 57.7 152.7 164.6 572.4
11 15:00 35.3 45 18.08 21.6 9 13 1007.3 0 38.0 33.8 63.5 168.0 183.4 638.0
11 14:50 35.9 42 17.41 21.3 9 11 1007.5 0 36.6 32.5 60.4 159.8 173.4 603.4
11 14:40 35.2 41 16.39 20.3 4 6 1007.6 0 34.6 31.1 57.0 150.7 162.1 563.9
11 14:30 35.9 42 17.41 21 6 11 1007.8 0 36.6 32.5 60.4 159.8 173.5 603.5
11 14:20 35 42 16.61 20.2 7 9 1008 0 35.0 31.6 58.0 153.4 165.4 575.1
11 14:10 35 43 17.01 20.9 7 9 1008.1 0 35.9 32.2 59.6 157.5 170.4 592.7
11 14:00 34.8 46 18.01 21.8 11 17 1008.3 0 37.9 33.9 63.7 168.5 183.8 639.3
11 13:50 34.9 43 16.92 20.5 11 11 1008.4 0 35.7 32.1 59.3 156.8 169.5 589.6
11 13:40 35 45 17.8 21.3 9 11 1008.6 0 37.5 33.5 62.7 165.9 180.6 628.3
11 13:30 34.6 44 17.04 20.9 9 17 1008.7 0 36.0 32.4 60.0 158.7 171.7 597.3
11 13:20 34.6 48 18.59 22 6 7 1008.9 0 39.2 34.9 66.2 175.2 192.0 667.9
11 13:10 34.7 48 18.69 22.4 11 15 1009.1 0 39.4 35.0 66.5 176.1 193.1 671.8
11 13:00 34.4 46 17.63 21.4 9 15 1009.3 0 37.2 33.5 62.5 165.4 179.9 625.7
11 12:50 34.1 50 18.87 22.5 7 9 1009.4 0 39.8 35.6 67.8 179.5 197.1 685.5
11 12:40 33.8 49 18.2 21.9 6 7 1009.6 0 38.4 34.6 65.3 172.8 188.9 656.9
11 12:30 33.5 49 17.92 21.6 7 11 1009.7 0 37.9 34.3 64.4 170.5 185.9 646.4
11 12:20 33.5 49 17.92 21.6 7 9 1009.9 0 37.9 34.3 64.4 170.5 185.9 646.5
11 12:10 34 53 19.9 23.1 7 9 1010.1 0 41.9 37.4 72.2 191.3 211.5 735.8
11 12:00 33.2 52 18.71 22.3 6 11 1010.3 0 39.5 35.7 68.0 179.9 197.3 686.3
11 11:50 33.1 53 18.97 22.5 9 11 1010.4 0 40.1 36.2 69.2 183.0 201.1 699.6
11 11:40 32.9 55 19.48 22.7 11 15 1010.5 0 41.2 37.2 71.5 189.3 208.8 726.1
11 11:30 32.8 57 20.08 23.2 4 11 1010.7 0 42.4 38.3 74.2 196.4 217.5 756.5
11 11:20 32.7 56 19.63 22.8 6 6 1010.8 0 41.5 37.5 72.4 191.5 211.4 735.4
11 11:10 32.5 56 19.42 22.6 7 11 1010.9 0 41.1 37.3 71.6 189.6 209.1 727.1
11 11:00 32.2 59 20.14 23.2 9 11 1011.1 0 42.6 38.7 75.1 198.7 220.1 765.6
11 10:50 32.3 59 20.24 23.3 7 9 1011.2 0 42.8 38.8 75.4 199.6 221.3 769.6
11 10:40 31.9 60 20.15 23.4 4 6 1011.3 0 42.7 38.8 75.4 199.6 221.2 769.1
11 10:30 31.6 61 20.16 23.4 7 11 1011.3 0 42.7 39.0 75.7 200.5 222.2 772.7
11 10:20 31.4 64 20.93 23.8 7 7 1011.4 0 44.3 40.5 79.4 210.2 234.0 813.9
11 10:10 31.4 63 20.6 23.5 9 11 1011.4 0 43.6 39.9 77.9 206.3 229.2 797.0
11 10:00 30.8 66 20.9 23.7 6 9 1011.4 0 44.3 40.7 79.9 211.5 235.5 818.7
11 09:50 30.6 67 20.99 23.8 6 7 1011.5 0 44.6 41.0 80.5 213.2 237.5 825.6
11 09:40 30.7 68 21.42 24.1 4 6 1011.6 0 45.4 41.7 82.4 218.2 243.6 847.0
11 09:30 30.1 70 21.35 24 6 7 1011.6 0 45.4 41.9 82.7 219.0 244.5 850.0
11 09:20 30 69 20.93 23.7 6 7 1011.5 0 44.5 41.2 80.9 214.1 238.5 829.0
11 09:10 29.9 70 21.12 23.8 0 0 1011.5 0 44.9 41.6 81.9 216.7 241.6 840.1
11 09:00 29.7 69 20.59 23.6 4 9 1011.5 0 43.8 40.7 79.6 210.8 234.3 814.5
11 08:50 29.4 72 21.14 24 4 6 1011.6 0 45.0 41.9 82.5 218.4 243.6 846.8
11 08:40 29.1 76 21.95 24.4 7 7 1011.6 0 46.8 43.6 86.7 229.5 257.1 893.7
11 08:30 28.7 76 21.48 24 9 11 1011.5 0 45.8 42.9 84.9 224.7 251.1 872.9
11 08:20 28.5 81 22.64 24.9 6 7 1011.4 0 48.3 45.2 90.7 240.3 270.1 938.8
11 08:10 27.9 82 22.18 24.5 7 7 1011.4 0 47.4 44.6 89.2 236.2 264.9 920.7
11 08:00 27.4 85 22.37 24.7 6 9 1011.4 0 47.9 45.3 90.7 240.3 269.8 937.5
11 07:50 27.1 87 22.52 24.7 6 7 1011.3 0 48.2 45.7 91.8 243.2 273.3 949.7
11 07:40 26.4 90 22.4 24.6 7 7 1011.2 0 48.1 45.9 92.1 243.9 273.9 951.7
11 07:30 26.1 92 22.52 24.7 6 7 1011.1 0 48.3 46.3 93.1 246.4 277.0 962.4
11 07:20 25.8 94 22.63 24.8 0 0 1011 0 48.6 46.7 94.0 248.9 280.0 972.6
11 07:10 25.4 96 22.6 24.7 0 0 1010.9 0 48.6 46.9 94.4 249.8 281.0 976.0
11 07:00 24.9 96 21.97 24.2 0 0 1010.7 0 47.3 45.8 91.7 242.9 272.3 945.9
11 06:50 24.7 96 21.73 24 0 0 1010.6 0 46.8 45.5 90.8 240.3 269.1 934.5
11 06:40 24.7 96 21.73 24 6 6 1010.4 0 46.8 45.4 90.7 240.2 269.0 934.4
11 06:30 24.7 95 21.5 23.8 7 7 1010.3 0 46.4 45.0 89.6 237.1 265.2 921.2
11 06:20 24.7 95 21.5 23.8 7 7 1010.1 0 46.4 45.0 89.6 237.1 265.2 921.0
11 06:10 24.8 95 21.62 23.9 6 7 1010 0 46.6 45.1 90.0 238.4 266.8 926.6
11 06:00 24.9 95 21.75 24 7 9 1009.9 0 46.9 45.3 90.6 239.8 268.5 932.7
11 05:50 24.9 95 21.75 24 7 7 1009.9 0 46.9 45.3 90.6 239.8 268.5 932.7
11 05:40 25 96 22.1 24.3 7 9 1009.9 0 47.6 46.0 92.2 244.2 274.0 951.6

Last Refresh: 11-Apr-2021 22:21:02

Bureau of Meteorology